Time;durP1;ratioP1;P1;durP2;ratioP2;P2;SDS_P1;SDS_P2;PMS_P1;PMS_P2;Temp;Humidity;BMP_temperature;BMP_pressure;BME280_temperature;BME280_humidity;BME280_pressure;Samples;Min_cycle;Max_cycle;Signal;HPM_P1;HPM_P2
2022/04/12 00:01:07;;;;;;;2.90;1.58;;;3.20;99.90;;;;;;5029215;28;20381;-56
2022/04/12 00:03:32;;;;;;;6.28;1.80;;;3.20;99.90;;;;;;5028975;28;20033;-53
2022/04/12 00:05:58;;;;;;;4.88;1.98;;;3.20;99.90;;;;;;5027628;28;20464;-53
2022/04/12 00:08:24;;;;;;;3.25;1.92;;;3.20;99.90;;;;;;5035859;28;20412;-55
2022/04/12 00:10:49;;;;;;;3.85;1.77;;;3.20;99.90;;;;;;5049476;28;20112;-51
2022/04/12 00:13:18;;;;;;;3.38;1.70;;;3.10;99.90;;;;;;5060638;22;20037;-54
2022/04/12 00:15:44;;;;;;;1.42;1.33;;;3.10;99.90;;;;;;5027827;28;20029;-56
2022/04/12 00:20:54;;;;;;;2.45;1.80;;;3.10;99.90;;;;;;5013728;28;20067;-55
2022/04/12 00:23:20;;;;;;;7.65;1.95;;;3.10;99.90;;;;;;5027528;28;20489;-56
2022/04/12 00:25:46;;;;;;;4.40;2.05;;;3.10;99.90;;;;;;5028509;28;20048;-57
2022/04/12 00:28:13;;;;;;;5.97;1.52;;;3.10;99.90;;;;;;5014765;28;20095;-57
2022/04/12 00:30:39;;;;;;;3.30;2.05;;;3.00;99.90;;;;;;5010338;28;20034;-57
2022/04/12 00:33:05;;;;;;;4.63;2.00;;;3.00;99.90;;;;;;5007684;28;20038;-55
2022/04/12 00:35:30;;;;;;;2.63;1.45;;;3.00;99.90;;;;;;5009158;28;20382;-55
2022/04/12 00:37:56;;;;;;;2.08;1.30;;;3.00;99.90;;;;;;5011824;28;20130;-56
2022/04/12 00:40:24;;;;;;;2.17;1.92;;;3.00;99.90;;;;;;5013615;28;20613;-57
2022/04/12 00:42:51;;;;;;;1.85;1.60;;;2.90;99.90;;;;;;5028684;28;20400;-57
2022/04/12 00:45:17;;;;;;;2.65;1.55;;;2.90;99.90;;;;;;5025516;28;20091;-55
2022/04/12 00:47:43;;;;;;;5.18;1.75;;;2.90;99.90;;;;;;5028530;28;20029;-57
2022/04/12 00:50:10;;;;;;;4.47;1.73;;;2.90;99.90;;;;;;5025427;28;20042;-54
2022/04/12 00:52:42;;;;;;;2.15;1.63;;;2.90;99.90;;;;;;5007678;28;20037;-56
2022/04/12 00:55:08;;;;;;;3.45;2.10;;;2.90;99.90;;;;;;5010766;28;20041;-56
2022/04/12 00:57:35;;;;;;;5.88;1.95;;;2.80;99.90;;;;;;5011569;28;20034;-51
2022/04/12 01:00:03;;;;;;;2.88;1.75;;;2.80;99.90;;;;;;5006235;28;20089;-52
2022/04/12 01:02:28;;;;;;;1.80;1.60;;;2.80;99.90;;;;;;5009248;28;20111;-52
2022/04/12 01:04:54;;;;;;;5.05;1.90;;;2.80;99.90;;;;;;5012010;28;20520;-56
2022/04/12 01:07:20;;;;;;;6.10;1.75;;;2.80;99.90;;;;;;5012841;28;20512;-56
2022/04/12 01:09:46;;;;;;;4.20;2.00;;;2.80;99.90;;;;;;5012611;28;20049;-52
2022/04/12 01:12:12;;;;;;;3.70;1.75;;;2.90;99.90;;;;;;5013392;28;20038;-55
2022/04/12 01:14:38;;;;;;;3.58;1.92;;;2.80;99.90;;;;;;5012096;28;20052;-55
2022/04/12 01:17:07;;;;;;;6.28;2.10;;;2.80;99.90;;;;;;5012003;28;20029;-56
2022/04/12 01:19:33;;;;;;;3.72;1.50;;;2.80;99.90;;;;;;5012071;28;20626;-57
2022/04/12 01:22:08;;;;;;;3.28;1.80;;;2.90;99.90;;;;;;5018118;28;20025;-57
2022/04/12 01:24:34;;;;;;;2.88;1.88;;;2.80;99.90;;;;;;5013285;28;20026;-58
2022/04/12 01:27:00;;;;;;;4.88;2.30;;;2.80;99.90;;;;;;5011292;28;20037;-54
2022/04/12 01:29:30;;;;;;;5.32;2.15;;;2.80;99.90;;;;;;5012913;28;20034;-55
2022/04/12 01:31:56;;;;;;;4.00;1.85;;;2.80;99.90;;;;;;5012109;28;20380;-55
2022/04/12 01:34:22;;;;;;;5.43;2.17;;;2.80;99.90;;;;;;5012072;28;20049;-57
2022/04/12 01:36:47;;;;;;;3.15;1.80;;;2.80;99.90;;;;;;5012253;28;20066;-55
2022/04/12 01:39:13;;;;;;;2.65;1.75;;;2.90;99.90;;;;;;5013653;28;20056;-54
2022/04/12 01:41:38;;;;;;;1.83;1.50;;;2.90;99.90;;;;;;5026568;28;20033;-53
2022/04/12 01:44:04;;;;;;;3.55;1.85;;;2.90;99.90;;;;;;5031396;28;20103;-54
2022/04/12 01:46:30;;;;;;;8.18;2.00;;;2.90;99.90;;;;;;5025856;28;20025;-55
2022/04/12 01:48:55;;;;;;;2.92;1.77;;;2.90;99.90;;;;;;5012031;28;20065;-55
2022/04/12 01:51:21;;;;;;;8.55;2.13;;;2.90;99.90;;;;;;5023001;28;20040;-55
2022/04/12 01:53:46;;;;;;;5.70;1.75;;;2.90;99.90;;;;;;5031115;28;20042;-55
2022/04/12 01:56:12;;;;;;;2.50;1.58;;;3.00;99.90;;;;;;5021584;28;20088;-55
2022/04/12 01:58:38;;;;;;;6.32;2.13;;;2.90;99.90;;;;;;5011989;28;20212;-55
2022/04/12 02:01:04;;;;;;;5.47;1.80;;;2.90;99.90;;;;;;5021207;28;20380;-57
2022/04/12 02:03:30;;;;;;;3.28;2.03;;;2.90;99.90;;;;;;5030601;28;20025;-54
2022/04/12 02:05:56;;;;;;;3.88;2.05;;;2.90;99.90;;;;;;5029958;28;20064;-55
2022/04/12 02:08:22;;;;;;;3.83;2.00;;;2.90;99.90;;;;;;5024870;28;20030;-55
2022/04/12 02:10:47;;;;;;;5.05;1.77;;;2.90;99.90;;;;;;5013085;28;20054;-53
2022/04/12 02:13:13;;;;;;;6.93;1.90;;;2.90;99.90;;;;;;5010859;28;20510;-54
2022/04/12 02:15:38;;;;;;;4.80;2.35;;;2.90;99.90;;;;;;5011357;28;20499;-55
2022/04/12 02:18:04;;;;;;;3.40;1.92;;;2.90;99.90;;;;;;5026533;28;20033;-53
2022/04/12 02:20:29;;;;;;;5.90;2.40;;;2.90;99.90;;;;;;5026360;28;20040;-54
2022/04/12 02:22:55;;;;;;;2.85;2.00;;;2.90;99.90;;;;;;5027105;28;20384;-57
2022/04/12 02:25:21;;;;;;;3.10;2.35;;;2.80;99.90;;;;;;5030384;28;20092;-54
2022/04/12 02:27:47;;;;;;;4.18;1.92;;;2.80;99.90;;;;;;5006893;28;20038;-55
2022/04/12 02:30:13;;;;;;;5.00;2.20;;;2.80;99.90;;;;;;4994922;28;20029;-56
2022/04/12 02:32:42;;;;;;;4.53;2.03;;;2.90;99.90;;;;;;5009505;28;20481;-55
2022/04/12 02:35:08;;;;;;;2.67;2.33;;;2.80;99.90;;;;;;5012655;28;20040;-57
2022/04/12 02:37:34;;;;;;;4.90;1.88;;;2.80;99.90;;;;;;5012380;28;20080;-54
2022/04/12 02:40:00;;;;;;;4.00;2.10;;;2.70;99.90;;;;;;5011343;28;20038;-54
2022/04/12 02:42:25;;;;;;;3.33;1.83;;;2.80;99.90;;;;;;5030079;28;20029;-55
2022/04/12 02:44:51;;;;;;;4.20;2.25;;;2.70;99.90;;;;;;5031099;28;20036;-54
2022/04/12 02:47:16;;;;;;;3.65;1.88;;;2.70;99.90;;;;;;5030696;28;20095;-54
2022/04/12 02:49:43;;;;;;;5.82;1.95;;;2.70;99.90;;;;;;5029367;28;20467;-58
2022/04/12 02:52:08;;;;;;;2.83;1.70;;;2.60;99.90;;;;;;5030713;28;20425;-55
2022/04/12 02:54:34;;;;;;;6.65;2.10;;;2.70;99.90;;;;;;5025591;28;20064;-55
2022/04/12 02:57:00;;;;;;;8.43;2.10;;;2.70;99.90;;;;;;5014155;28;20353;-58
2022/04/12 02:59:26;;;;;;;5.10;2.10;;;2.70;99.90;;;;;;5010690;28;20030;-57
2022/04/12 03:01:52;;;;;;;4.88;2.13;;;2.70;99.90;;;;;;5021220;28;20026;-56
2022/04/12 03:04:17;;;;;;;2.83;2.20;;;2.70;99.90;;;;;;5017123;28;20109;-56
2022/04/12 03:06:43;;;;;;;3.75;2.28;;;2.70;99.90;;;;;;5010729;28;20400;-56
2022/04/12 03:09:08;;;;;;;4.55;1.90;;;2.60;99.90;;;;;;5024566;28;20447;-57
2022/04/12 03:11:35;;;;;;;6.47;2.28;;;2.60;99.90;;;;;;5030352;28;20029;-55
2022/04/12 03:14:01;;;;;;;5.82;2.47;;;2.70;99.90;;;;;;5020169;28;20034;-54
2022/04/12 03:16:27;;;;;;;5.18;2.08;;;2.70;99.90;;;;;;5010664;28;20535;-56
2022/04/12 03:18:52;;;;;;;2.20;1.58;;;2.60;99.90;;;;;;5010756;28;20049;-57
2022/04/12 03:21:18;;;;;;;4.30;2.20;;;2.70;99.90;;;;;;5010617;28;20040;-56
2022/04/12 03:23:43;;;;;;;6.25;2.28;;;2.70;99.90;;;;;;5017268;28;20029;-53
2022/04/12 03:26:09;;;;;;;2.45;2.15;;;2.70;99.90;;;;;;5022312;28;20037;-54
2022/04/12 03:28:34;;;;;;;5.88;2.15;;;2.70;99.90;;;;;;5010490;28;20033;-57
2022/04/12 03:31:00;;;;;;;4.68;2.10;;;2.70;99.90;;;;;;5019105;28;20036;-54
2022/04/12 03:33:26;;;;;;;5.47;2.60;;;2.70;99.90;;;;;;5024879;28;20109;-56
2022/04/12 03:35:51;;;;;;;4.97;2.10;;;2.70;99.90;;;;;;5010067;28;20101;-53
2022/04/12 03:38:17;;;;;;;3.17;2.33;;;2.70;99.90;;;;;;5010558;28;20034;-55
2022/04/12 03:40:46;;;;;;;2.55;2.15;;;2.70;99.90;;;;;;5011076;28;20026;-54
2022/04/12 03:43:12;;;;;;;4.53;2.30;;;2.70;99.90;;;;;;5011931;28;20026;-57
2022/04/12 03:45:37;;;;;;;2.65;2.22;;;2.70;99.90;;;;;;5029539;28;20087;-55
2022/04/12 03:48:04;;;;;;;4.43;2.03;;;2.70;99.90;;;;;;5029650;28;20396;-57
2022/04/12 03:50:31;;;;;;;4.18;2.20;;;2.70;99.90;;;;;;5028116;28;20064;-56
2022/04/12 03:52:56;;;;;;;3.95;2.33;;;2.70;99.90;;;;;;5010996;28;20096;-56
2022/04/12 03:55:31;;;;;;;5.53;2.47;;;2.60;99.90;;;;;;5028301;28;20408;-57
2022/04/12 03:58:08;;;;;;;6.65;2.30;;;2.60;99.90;;;;;;4990219;28;20034;-54
2022/04/12 04:00:35;;;;;;;3.05;2.25;;;2.70;99.90;;;;;;5002026;28;20029;-52
2022/04/12 04:03:01;;;;;;;3.67;2.00;;;2.70;99.90;;;;;;5020573;28;20104;-57
2022/04/12 04:05:26;;;;;;;5.75;2.47;;;2.70;99.90;;;;;;5028296;28;20442;-59
2022/04/12 04:07:52;;;;;;;6.47;2.60;;;2.70;99.90;;;;;;5029479;28;20053;-57
2022/04/12 04:10:19;;;;;;;1.90;1.55;;;2.60;99.90;;;;;;4997475;28;20036;-58
2022/04/12 04:12:44;;;;;;;2.80;2.22;;;2.60;99.90;;;;;;5028927;28;20052;-57
2022/04/12 04:15:14;;;;;;;5.22;2.90;;;2.60;99.90;;;;;;5027207;28;20030;-54
2022/04/12 04:17:45;;;;;;;3.67;2.35;;;2.70;99.90;;;;;;5029390;28;20028;-56
2022/04/12 04:20:12;;;;;;;2.88;1.88;;;2.60;99.90;;;;;;5027791;28;20064;-54
2022/04/12 04:22:38;;;;;;;4.82;2.42;;;2.60;99.90;;;;;;5013492;28;20076;-56
2022/04/12 04:25:04;;;;;;;4.07;2.03;;;2.70;99.90;;;;;;5013351;28;20504;-54
2022/04/12 04:27:29;;;;;;;4.50;2.45;;;2.70;99.90;;;;;;5009726;28;20038;-57
2022/04/12 04:29:58;;;;;;;3.83;2.30;;;2.70;99.90;;;;;;5008234;28;20113;-58
2022/04/12 04:32:24;;;;;;;6.80;3.10;;;2.70;99.90;;;;;;5009460;28;20034;-55
2022/04/12 04:34:49;;;;;;;5.93;2.92;;;2.70;99.90;;;;;;5022528;28;20048;-57
2022/04/12 04:37:15;;;;;;;3.30;2.35;;;2.70;99.90;;;;;;5031832;28;20037;-56
2022/04/12 04:39:40;;;;;;;3.35;2.28;;;2.70;99.90;;;;;;5031012;28;20509;-55
2022/04/12 04:42:06;;;;;;;3.25;2.78;;;2.70;99.90;;;;;;5032957;28;20040;-56
2022/04/12 04:44:32;;;;;;;2.25;1.98;;;2.70;99.90;;;;;;5026329;28;20377;-55
2022/04/12 04:46:58;;;;;;;4.72;2.30;;;2.70;99.90;;;;;;5033179;28;20039;-55
2022/04/12 04:49:24;;;;;;;3.95;2.15;;;2.80;99.90;;;;;;5032695;28;20029;-54
2022/04/12 04:51:50;;;;;;;3.08;2.30;;;2.80;99.90;;;;;;5032443;28;20486;-58
2022/04/12 04:54:15;;;;;;;2.50;2.30;;;2.80;99.90;;;;;;5023749;28;20104;-57
2022/04/12 04:56:41;;;;;;;3.53;2.90;;;2.90;99.90;;;;;;5026639;28;20377;-57
2022/04/12 04:59:07;;;;;;;4.10;2.90;;;2.90;99.90;;;;;;5014382;28;20056;-54
2022/04/12 05:01:32;;;;;;;5.70;2.70;;;2.90;99.90;;;;;;5013249;28;20633;-57
2022/04/12 05:03:58;;;;;;;2.97;2.50;;;3.00;99.90;;;;;;5022576;28;20042;-57
2022/04/12 05:06:23;;;;;;;4.40;1.77;;;3.00;99.90;;;;;;5014319;28;20026;-55
2022/04/12 05:08:49;;;;;;;4.38;2.33;;;3.00;99.90;;;;;;5013129;28;20443;-58
2022/04/12 05:11:14;;;;;;;6.20;2.58;;;3.10;99.90;;;;;;5013081;28;20062;-57
2022/04/12 05:13:40;;;;;;;4.13;2.50;;;3.10;99.90;;;;;;5014907;28;20018;-58
2022/04/12 05:16:06;;;;;;;4.90;2.95;;;3.20;99.90;;;;;;5032019;28;20026;-54
2022/04/12 05:18:31;;;;;;;4.63;2.70;;;3.20;99.90;;;;;;5031242;28;20487;-57
2022/04/12 05:20:57;;;;;;;3.65;2.72;;;3.30;99.90;;;;;;5030869;28;20052;-57
2022/04/12 05:23:22;;;;;;;4.50;3.05;;;3.30;99.90;;;;;;5031333;28;20385;-58
2022/04/12 05:25:48;;;;;;;3.63;2.70;;;3.30;99.90;;;;;;5013875;28;20095;-57
2022/04/12 05:28:14;;;;;;;6.07;3.13;;;3.40;99.90;;;;;;5032025;28;20025;-55
2022/04/12 05:30:39;;;;;;;5.50;3.08;;;3.50;99.90;;;;;;5015573;28;20021;-57
2022/04/12 05:33:05;;;;;;;5.28;2.92;;;3.50;99.90;;;;;;5032096;28;20037;-56
2022/04/12 05:35:30;;;;;;;6.03;2.90;;;3.60;99.90;;;;;;5014102;28;20091;-57
2022/04/12 05:37:56;;;;;;;5.47;2.45;;;3.60;99.90;;;;;;5012957;28;20021;-59
2022/04/12 05:40:22;;;;;;;5.78;3.08;;;3.70;99.90;;;;;;5012591;28;20400;-55
2022/04/12 05:42:49;;;;;;;3.50;2.78;;;3.70;99.90;;;;;;5011764;28;20076;-56
2022/04/12 05:45:15;;;;;;;5.47;2.95;;;3.80;99.90;;;;;;5026385;28;20022;-57
2022/04/12 05:47:52;;;;;;;7.53;3.50;;;3.80;99.90;;;;;;5000939;28;20032;-58
2022/04/12 05:50:25;;;;;;;;;;;3.90;99.90;;;;;;5031334;28;20021;-58
2022/04/12 05:52:50;;;;;;;4.32;2.92;;;3.90;99.90;;;;;;5031925;28;19909;-52
2022/04/12 05:55:18;;;;;;;4.05;2.40;;;4.00;99.90;;;;;;5029250;28;20056;-53
2022/04/12 05:57:59;;;;;;;5.95;3.38;;;4.00;99.90;;;;;;5012706;28;20400;-55
2022/04/12 06:00:26;;;;;;;4.40;2.70;;;4.10;99.90;;;;;;5012347;28;20447;-55
2022/04/12 06:02:53;;;;;;;5.00;2.58;;;4.20;99.90;;;;;;5012519;28;20038;-56
2022/04/12 06:05:20;;;;;;;4.65;3.00;;;4.20;99.90;;;;;;5013081;28;20022;-56
2022/04/12 06:07:46;;;;;;;5.38;2.92;;;4.30;99.90;;;;;;5012054;28;20036;-56
2022/04/12 06:10:14;;;;;;;3.20;2.90;;;4.40;99.90;;;;;;5014910;28;20108;-58
2022/04/12 06:12:43;;;;;;;7.80;3.00;;;4.50;99.90;;;;;;5030131;28;20408;-58
2022/04/12 06:15:09;;;;;;;3.67;3.13;;;4.50;99.90;;;;;;5028619;28;20116;-59
2022/04/12 06:17:36;;;;;;;3.88;3.38;;;4.70;99.90;;;;;;5012751;28;20029;-57
2022/04/12 06:20:09;;;;;;;5.25;3.60;;;4.80;99.90;;;;;;5012055;28;20040;-58
2022/04/12 06:22:35;;;;;;;8.02;3.22;;;4.90;99.90;;;;;;5011551;28;20033;-58
2022/04/12 06:25:02;;;;;;;5.07;2.85;;;5.00;99.90;;;;;;5018831;28;20515;-58
2022/04/12 06:27:32;;;;;;;4.80;2.50;;;5.10;99.90;;;;;;5009593;28;20026;-56
2022/04/12 06:30:02;;;;;;;6.25;3.15;;;5.20;99.90;;;;;;5011536;28;20030;-59
2022/04/12 06:32:28;;;;;;;3.33;3.03;;;5.30;99.90;;;;;;5010475;28;20057;-54
2022/04/12 06:34:53;;;;;;;5.72;3.13;;;5.30;99.90;;;;;;5010158;28;20026;-56
2022/04/12 06:37:23;;;;;;;3.90;3.50;;;5.40;99.90;;;;;;5011720;28;20152;-59
2022/04/12 06:39:48;;;;;;;9.23;3.13;;;5.50;99.90;;;;;;5011433;28;20029;-57
2022/04/12 06:42:14;;;;;;;6.00;3.35;;;5.50;99.90;;;;;;5010408;28;20157;-57
2022/04/12 06:44:41;;;;;;;6.03;4.18;;;5.60;99.90;;;;;;5011300;28;20037;-60
2022/04/12 06:47:07;;;;;;;4.28;3.05;;;5.70;99.90;;;;;;5011140;28;20018;-59
2022/04/12 06:49:33;;;;;;;5.82;3.38;;;5.70;99.90;;;;;;5011091;28;20370;-58
2022/04/12 06:51:59;;;;;;;4.88;2.95;;;5.80;99.90;;;;;;5010818;28;20033;-57
2022/04/12 06:54:25;;;;;;;8.10;3.25;;;5.90;99.90;;;;;;5013462;28;20032;-55
2022/04/12 06:56:51;;;;;;;5.38;3.33;;;5.90;99.90;;;;;;5019903;28;20112;-58
2022/04/12 06:59:16;;;;;;;6.45;3.80;;;6.00;99.90;;;;;;5010912;28;20132;-58
2022/04/12 07:01:42;;;;;;;5.95;4.10;;;6.00;99.90;;;;;;5012117;28;20033;-58
2022/04/12 07:04:08;;;;;;;5.55;3.13;;;6.10;99.90;;;;;;5016420;28;20526;-57
2022/04/12 07:06:34;;;;;;;5.18;3.60;;;6.20;99.90;;;;;;5013552;28;20109;-56
2022/04/12 07:08:59;;;;;;;3.58;2.88;;;6.20;99.90;;;;;;5030346;28;20113;-59
2022/04/12 07:11:25;;;;;;;6.15;3.40;;;6.30;99.90;;;;;;5030042;28;20022;-56
2022/04/12 07:13:51;;;;;;;4.30;2.65;;;6.40;99.90;;;;;;5029953;28;20492;-55
2022/04/12 07:16:16;;;;;;;3.58;2.80;;;6.50;99.90;;;;;;5029605;28;20043;-58
2022/04/12 07:18:42;;;;;;;5.63;3.28;;;6.50;99.90;;;;;;5028899;28;20026;-58
2022/04/12 07:21:08;;;;;;;4.63;2.92;;;6.60;99.90;;;;;;5030343;28;20081;-56
2022/04/12 07:23:36;;;;;;;3.95;2.72;;;6.60;99.90;;;;;;5030093;28;20021;-57
2022/04/12 07:26:03;;;;;;;3.10;2.45;;;6.70;99.90;;;;;;5030285;28;20021;-57
2022/04/12 07:28:29;;;;;;;3.55;2.85;;;6.80;99.90;;;;;;5028657;28;20544;-57
2022/04/12 07:30:54;;;;;;;3.03;2.65;;;6.90;99.90;;;;;;5030116;28;20100;-58
2022/04/12 07:33:20;;;;;;;4.15;2.58;;;7.00;99.90;;;;;;5028336;28;20029;-54
2022/04/12 07:35:46;;;;;;;6.63;3.40;;;7.00;99.90;;;;;;5010593;28;20516;-54
2022/04/12 07:38:12;;;;;;;6.00;3.10;;;7.10;99.90;;;;;;5010374;28;20014;-55
2022/04/12 07:40:37;;;;;;;5.15;3.00;;;7.20;99.90;;;;;;5011104;28;20740;-54
2022/04/12 07:43:03;;;;;;;4.57;3.10;;;7.20;99.90;;;;;;5009984;28;20030;-58
2022/04/12 07:45:28;;;;;;;4.82;3.17;;;7.30;99.90;;;;;;5010444;28;20109;-54
2022/04/12 07:47:54;;;;;;;4.65;3.08;;;7.40;99.90;;;;;;5010254;28;20033;-56
2022/04/12 07:50:20;;;;;;;3.92;2.85;;;7.50;99.90;;;;;;5010515;28;20041;-57
2022/04/12 07:52:45;;;;;;;5.43;2.97;;;7.60;99.90;;;;;;5027366;28;20037;-57
2022/04/12 07:55:11;;;;;;;4.47;2.72;;;7.80;99.90;;;;;;5029286;28;20039;-59
2022/04/12 07:57:36;;;;;;;7.47;3.45;;;7.90;99.90;;;;;;5030160;28;20491;-55
2022/04/12 08:00:03;;;;;;;5.13;2.80;;;8.00;99.90;;;;;;5029341;28;20084;-56
2022/04/12 08:02:29;;;;;;;6.97;3.72;;;8.10;99.90;;;;;;5029356;28;20100;-59
2022/04/12 08:04:55;;;;;;;4.72;2.97;;;8.30;99.90;;;;;;5029367;28;20547;-58
2022/04/12 08:07:20;;;;;;;7.00;2.60;;;8.50;99.90;;;;;;5027970;28;20022;-57
2022/04/12 08:09:46;;;;;;;6.78;3.00;;;8.60;99.90;;;;;;5029449;28;20786;-56
2022/04/12 08:12:12;;;;;;;4.28;2.55;;;8.80;99.90;;;;;;5028073;28;20029;-58
2022/04/12 08:14:38;;;;;;;3.88;2.92;;;8.90;99.90;;;;;;5029459;28;20060;-56
2022/04/12 08:17:03;;;;;;;3.25;2.60;;;9.00;99.90;;;;;;5027838;28;20563;-55
2022/04/12 08:19:29;;;;;;;3.90;2.55;;;9.10;99.90;;;;;;5029446;28;20032;-56
2022/04/12 08:21:55;;;;;;;7.90;2.92;;;9.20;99.90;;;;;;5028875;28;20034;-56
2022/04/12 08:24:22;;;;;;;3.33;2.42;;;9.30;99.90;;;;;;5029280;28;20028;-54
2022/04/12 08:26:48;;;;;;;2.72;2.53;;;9.30;99.90;;;;;;5027041;28;20022;-55
2022/04/12 08:29:13;;;;;;;4.75;2.40;;;9.40;99.90;;;;;;5014028;28;20021;-57
2022/04/12 08:31:42;;;;;;;4.25;2.65;;;9.50;99.90;;;;;;5009830;28;20445;-54
2022/04/12 08:34:07;;;;;;;2.58;2.35;;;9.60;99.90;;;;;;5009706;28;20460;-56
2022/04/12 08:36:33;;;;;;;5.88;2.63;;;9.70;99.90;;;;;;5010972;28;20030;-56
2022/04/12 08:38:58;;;;;;;4.15;2.83;;;9.80;99.90;;;;;;5012735;28;20397;-59
2022/04/12 08:41:26;;;;;;;3.30;2.38;;;10.10;99.90;;;;;;5012500;28;20021;-56
2022/04/12 08:43:56;;;;;;;3.65;2.53;;;10.30;99.90;;;;;;5018710;28;20645;-54
2022/04/12 08:46:27;;;;;;;3.50;2.50;;;10.60;99.90;;;;;;5017519;28;20492;-57
2022/04/12 08:48:57;;;;;;;2.42;2.22;;;10.80;99.90;;;;;;5014274;28;20030;-55
2022/04/12 08:51:26;;;;;;;4.22;3.22;;;10.80;99.90;;;;;;5010223;28;20018;-57
2022/04/12 08:53:53;;;;;;;6.30;3.10;;;10.90;99.90;;;;;;5012370;28;20061;-55
2022/04/12 08:56:19;;;;;;;4.93;2.88;;;11.10;99.90;;;;;;5013082;28;20017;-58
2022/04/12 08:58:45;;;;;;;3.83;2.65;;;11.30;99.10;;;;;;5015017;28;20089;-54
2022/04/12 09:01:11;;;;;;;3.65;2.95;;;11.40;99.30;;;;;;5013704;28;20105;-59
2022/04/12 09:03:36;;;;;;;5.15;2.85;;;11.50;99.40;;;;;;5011622;28;20029;-56
2022/04/12 09:06:02;;;;;;;5.18;3.38;;;11.70;98.70;;;;;;5016646;28;20164;-55
2022/04/12 09:08:30;;;;;;;3.42;2.67;;;11.80;98.40;;;;;;5013964;28;20034;-55
2022/04/12 09:11:03;;;;;;;3.65;3.13;;;12.00;99.20;;;;;;5012795;28;20029;-55
2022/04/12 09:13:29;;;;;;;4.60;2.83;;;12.10;97.20;;;;;;5011167;28;20022;-58
2022/04/12 09:15:55;;;;;;;3.50;3.20;;;12.30;98.30;;;;;;5012464;28;20388;-56
2022/04/12 09:18:50;;;;;;;3.90;3.47;;;12.50;95.60;;;;;;5007257;28;20113;-55
2022/04/12 09:21:16;;;;;;;4.90;3.55;;;12.50;97.30;;;;;;4997939;28;20050;-59
2022/04/12 09:23:49;;;;;;;7.80;3.95;;;12.60;95.60;;;;;;5020535;28;20013;-59
2022/04/12 09:26:22;;;;;;;7.47;3.65;;;12.70;95.90;;;;;;5014613;28;20032;-59
2022/04/12 09:28:48;;;;;;;5.68;3.08;;;12.80;94.80;;;;;;5013738;28;20515;-57
2022/04/12 09:31:16;;;;;;;3.90;3.30;;;12.90;93.90;;;;;;5022952;28;20022;-56
2022/04/12 09:33:44;;;;;;;5.00;3.60;;;13.00;93.30;;;;;;5012339;28;20448;-58
2022/04/12 09:36:10;;;;;;;6.47;3.28;;;13.10;92.90;;;;;;5012618;28;20022;-55
2022/04/12 09:38:37;;;;;;;5.85;4.05;;;13.20;95.00;;;;;;5015997;28;20476;-58
2022/04/12 09:41:19;;;;;;;6.88;4.00;;;13.20;92.80;;;;;;5032362;28;20022;-58
2022/04/12 09:43:55;;;;;;;5.65;4.00;;;13.20;93.90;;;;;;5030436;28;20108;-57
2022/04/12 09:46:22;;;;;;;5.15;4.10;;;13.30;94.00;;;;;;5032316;28;20480;-54
2022/04/12 09:48:49;;;;;;;5.45;3.80;;;13.50;93.50;;;;;;5032021;28;20027;-57
2022/04/12 09:51:16;;;;;;;6.82;4.50;;;13.50;91.60;;;;;;5026330;28;20097;-59
2022/04/12 09:53:45;;;;;;;6.20;4.43;;;13.50;92.40;;;;;;5012208;28;20080;-56
2022/04/12 09:56:25;;;;;;;6.50;4.45;;;13.50;91.90;;;;;;5012303;28;20022;-55
2022/04/12 09:58:53;;;;;;;7.40;4.35;;;13.50;91.20;;;;;;5012503;28;20022;-59
2022/04/12 10:01:20;;;;;;;6.32;4.65;;;13.60;92.30;;;;;;5011946;28;20030;-58
2022/04/12 10:03:51;;;;;;;5.60;3.70;;;13.70;91.50;;;;;;5012013;28;20040;-56
2022/04/12 10:06:28;;;;;;;9.15;4.15;;;13.80;92.30;;;;;;5011025;28;20018;-58
2022/04/12 10:09:03;;;;;;;6.03;4.50;;;13.90;92.00;;;;;;5011863;28;20098;-55
2022/04/12 10:11:28;;;;;;;6.72;4.68;;;14.10;90.70;;;;;;5012204;28;20033;-58
2022/04/12 10:13:54;;;;;;;6.53;4.32;;;14.20;90.20;;;;;;5011936;28;20038;-56
2022/04/12 10:16:22;;;;;;;11.55;5.18;;;14.30;90.10;;;;;;5012096;28;20026;-57
2022/04/12 10:18:48;;;;;;;6.63;4.38;;;14.30;86.40;;;;;;5012180;28;20444;-55
2022/04/12 10:21:14;;;;;;;9.82;4.75;;;14.40;86.70;;;;;;5012157;28;20079;-55
2022/04/12 10:23:43;;;;;;;8.10;4.93;;;14.60;87.90;;;;;;5011347;28;20034;-55
2022/04/12 10:26:10;;;;;;;7.05;5.03;;;14.50;83.60;;;;;;5012190;28;20111;-57
2022/04/12 10:28:37;;;;;;;7.32;6.05;;;14.50;85.10;;;;;;5016410;28;20029;-55
2022/04/12 10:31:15;;;;;;;6.60;4.70;;;14.50;83.20;;;;;;5031316;28;20573;-58
2022/04/12 10:33:49;;;;;;;6.50;5.03;;;14.30;82.60;;;;;;5023483;28;20030;-55
2022/04/12 10:36:15;;;;;;;8.93;4.90;;;14.30;84.40;;;;;;5011837;28;20018;-58
2022/04/12 10:38:42;;;;;;;8.70;4.85;;;14.20;82.10;;;;;;5013191;28;20037;-57
2022/04/12 10:41:15;;;;;;;7.88;4.85;;;14.10;84.80;;;;;;5010097;28;20026;-59
2022/04/12 10:43:41;;;;;;;7.28;4.53;;;14.10;83.50;;;;;;5013005;28;20156;-57
2022/04/12 10:46:11;;;;;;;8.05;5.05;;;14.20;86.80;;;;;;5015900;28;20025;-57
2022/04/12 10:48:37;;;;;;;7.13;4.85;;;14.40;86.60;;;;;;5026774;28;20480;-54
2022/04/12 10:51:04;;;;;;;9.05;4.93;;;14.60;86.10;;;;;;5031276;28;20030;-54
2022/04/12 10:53:36;;;;;;;8.77;5.80;;;14.80;83.20;;;;;;5030858;28;20026;-56
2022/04/12 10:56:08;;;;;;;7.38;4.95;;;14.80;80.90;;;;;;5030953;28;20075;-57
2022/04/12 10:58:34;;;;;;;7.53;5.28;;;14.60;81.70;;;;;;5031081;28;20492;-55
2022/04/12 11:01:01;;;;;;;8.35;4.88;;;14.60;81.80;;;;;;5026123;28;20116;-55
2022/04/12 11:03:53;;;;;;;6.82;4.68;;;14.60;83.80;;;;;;5022572;28;20040;-59
2022/04/12 11:06:21;;;;;;;7.28;5.80;;;14.80;84.50;;;;;;5030936;28;20057;-59
2022/04/12 11:08:50;;;;;;;7.35;5.07;;;14.90;80.80;;;;;;5031544;28;20427;-57
2022/04/12 11:11:26;;;;;;;9.25;4.60;;;15.00;80.80;;;;;;5030949;28;20108;-58
2022/04/12 11:13:53;;;;;;;6.55;4.78;;;15.10;80.90;;;;;;5030490;28;20040;-58
2022/04/12 11:16:20;;;;;;;8.02;4.80;;;15.10;81.60;;;;;;5030639;28;20036;-58
2022/04/12 11:18:54;;;;;;;7.93;5.20;;;15.20;81.30;;;;;;5030856;28;20105;-59
2022/04/12 11:21:22;;;;;;;5.28;4.28;;;15.20;80.50;;;;;;5031031;28;20026;-56
2022/04/12 11:23:56;;;;;;;8.65;4.75;;;15.10;80.40;;;;;;5031928;28;20021;-58
2022/04/12 11:26:50;;;;;;;8.38;5.32;;;15.20;81.40;;;;;;5030739;28;20088;-55
2022/04/12 11:29:16;;;;;;;7.38;5.35;;;15.30;82.20;;;;;;5030463;28;20029;-54
2022/04/12 11:31:56;;;;;;;6.85;4.70;;;15.30;79.70;;;;;;5030245;28;20036;-56
2022/04/12 11:34:23;;;;;;;6.75;4.75;;;15.40;78.10;;;;;;5030201;28;20029;-57
2022/04/12 11:36:55;;;;;;;6.82;4.78;;;15.50;80.40;;;;;;5030310;28;20029;-58
2022/04/12 11:39:22;;;;;;;9.85;4.90;;;15.60;79.00;;;;;;5030279;28;20487;-57
2022/04/12 11:41:48;;;;;;;7.15;4.63;;;15.60;78.50;;;;;;5030204;28;20104;-57
2022/04/12 11:44:14;;;;;;;8.20;4.45;;;15.70;80.60;;;;;;5030177;28;20495;-57
2022/04/12 11:46:39;;;;;;;7.75;4.70;;;15.70;77.80;;;;;;5017399;28;20029;-58
2022/04/12 11:49:09;;;;;;;7.70;4.32;;;15.80;78.90;;;;;;5010274;28;20026;-57
2022/04/12 11:51:43;;;;;;;7.70;4.60;;;15.80;79.00;;;;;;5010101;28;20492;-58
2022/04/12 11:54:19;;;;;;;6.65;4.30;;;15.80;76.60;;;;;;5009802;28;20022;-55
2022/04/12 11:56:44;;;;;;;8.73;5.88;;;15.90;78.80;;;;;;5010235;28;20038;-58
2022/04/12 11:59:10;;;;;;;7.22;4.97;;;15.90;76.50;;;;;;5009638;28;20041;-57
2022/04/12 12:01:36;;;;;;;6.90;4.85;;;15.90;76.60;;;;;;5009926;28;20105;-53
2022/04/12 12:04:06;;;;;;;7.78;5.45;;;16.00;76.70;;;;;;5009690;28;20034;-56
2022/04/12 12:06:32;;;;;;;8.40;4.50;;;16.00;77.20;;;;;;5017376;28;20044;-58
2022/04/12 12:08:57;;;;;;;7.55;4.82;;;16.10;77.10;;;;;;5029201;28;20085;-55
2022/04/12 12:11:23;;;;;;;8.93;5.50;;;16.10;76.70;;;;;;5029624;28;20036;-58
2022/04/12 12:13:56;;;;;;;6.38;4.70;;;16.20;78.00;;;;;;5029268;28;20112;-58
2022/04/12 12:16:22;;;;;;;7.35;4.82;;;16.20;78.00;;;;;;5029664;28;20025;-58
2022/04/12 12:18:49;;;;;;;7.63;4.88;;;16.30;74.80;;;;;;5029906;28;20393;-55
2022/04/12 12:21:18;;;;;;;6.70;4.85;;;16.30;74.20;;;;;;5029507;28;20036;-57
2022/04/12 12:23:44;;;;;;;7.82;5.25;;;16.30;77.10;;;;;;5029696;28;20022;-55
2022/04/12 12:26:09;;;;;;;7.28;4.55;;;16.40;75.70;;;;;;5029449;28;20033;-57
2022/04/12 12:28:40;;;;;;;6.47;4.55;;;16.40;76.80;;;;;;5029436;28;20033;-57
2022/04/12 12:31:07;;;;;;;7.82;5.35;;;16.60;75.90;;;;;;5029434;28;20037;-55
2022/04/12 12:33:44;;;;;;;7.18;4.40;;;16.70;73.80;;;;;;5029058;28;20493;-58
2022/04/12 12:36:21;;;;;;;6.05;4.63;;;16.60;72.80;;;;;;5028899;28;20650;-55
2022/04/12 12:38:47;;;;;;;6.38;4.75;;;16.60;74.10;;;;;;5029451;28;20025;-54
2022/04/12 12:41:25;;;;;;;5.35;4.22;;;16.70;73.90;;;;;;5029197;28;20130;-59
2022/04/12 12:44:00;;;;;;;7.03;4.47;;;16.70;73.10;;;;;;5029232;28;20044;-53
2022/04/12 12:46:34;;;;;;;7.38;4.70;;;16.90;74.20;;;;;;5019229;28;20018;-58
2022/04/12 12:49:13;;;;;;;7.70;5.07;;;16.90;72.70;;;;;;5009548;28;20046;-57
2022/04/12 12:51:40;;;;;;;6.28;4.68;;;17.00;71.10;;;;;;5009725;28;20028;-58
2022/04/12 12:54:08;;;;;;;6.68;4.57;;;17.00;71.70;;;;;;5009591;28;20026;-58
2022/04/12 12:56:39;;;;;;;6.13;4.85;;;17.00;72.50;;;;;;5009898;28;20022;-61